»·PEaware :: VIR435 KSAN-EGLL

VIR435 :: KSAN-EGLL

FLIGHT INFORMATION

Flight Status: Arrived
Operator:
Virgin Atlantic Airways
More flights by this operator :: More flights under this callsign
Pilot: Kyle K. (11122)
Aircraft: AIRBUS A330
(A330)
More flights by this aircraft type
Origin: KSAN San Diego Intl-Lindbergh
United States
Destination: EGLL Heathrow
United Kingdom
More flights between these airports :: More routes between these airports
Route: ZZOOO1 MTBAL AVRRY LANCY J96 DRK KD36Q KD48U KD66A/N0468F390 KP81G KP87K SSM YVO YZV SAXAN/M081F390 52N050W 53N040W 54N030W 54N020W DOGAL/N0461F390 BEXET LIFFY Q37 MALUD Q38 NUGRA BNN1B
File this flight plan on PilotEdge
Remarks:
Altitude:
(Current/Filed)
37,000ft
Speed:
(Current/Filed)
460kts
Departed: 25-Feb-18 02:59 PM
Arrived: 25-Feb-18 11:04 PM
Distance/Time
Traveled:
4752nm/8:05
Distance/Time
To Go:
Arrived

Flight Plot

Page will automatically refresh every two minutes.

Flight plan parsing failed; only flown route is shown


Map Options




Map Legend


Flown Route
Filed Route
Departure Airport
Arrival Airport
Navaid (VOR, NDB)
Fix

Horizontal Profiles

Position Reports

Time Latitude Longitude Heading Altitude Ground
Speed
25-Feb-18 15:05 41.819184 -97.941996 59 37009ft 536kts
25-Feb-18 15:06 41.890594 -97.766998 59 37004ft 537kts
25-Feb-18 15:07 41.950155 -97.621350 59 37006ft 536kts
25-Feb-18 15:08 42.022051 -97.446221 59 37004ft 536kts
25-Feb-18 15:09 42.104644 -97.243692 59 37004ft 536kts
25-Feb-18 15:10 42.163354 -97.104357 59 37027ft 541kts
25-Feb-18 15:11 42.238473 -96.926647 60 37039ft 553kts
25-Feb-18 15:12 42.326330 -96.716775 60 37038ft 551kts
25-Feb-18 15:13 42.389239 -96.566887 60 37063ft 551kts
25-Feb-18 15:14 42.464819 -96.387324 59 37376ft 551kts
25-Feb-18 15:15 42.539454 -96.208507 60 37600ft 551kts
25-Feb-18 15:16 42.615751 -96.028701 60 37813ft 551kts
25-Feb-18 15:17 42.692469 -95.848811 59 38008ft 551kts
25-Feb-18 15:18 42.768711 -95.669149 58 38225ft 551kts
25-Feb-18 15:19 42.845549 -95.489844 58 38413ft 551kts
25-Feb-18 15:20 42.922264 -95.311517 59 38765ft 546kts
25-Feb-18 15:21 42.997875 -95.134753 57 39015ft 538kts
25-Feb-18 15:22 43.073524 -94.960519 57 38995ft 531kts
25-Feb-18 15:23 43.149831 -94.788471 57 38985ft 540kts
25-Feb-18 15:24 43.227603 -94.612062 57 38994ft 543kts
25-Feb-18 15:25 43.305581 -94.435372 56 39022ft 543kts
25-Feb-18 15:26 43.383099 -94.259377 57 39025ft 543kts
25-Feb-18 15:27 43.462029 -94.082709 57 38997ft 543kts
25-Feb-18 15:28 43.527594 -93.897784 74 39010ft 544kts
25-Feb-18 15:29 43.572343 -93.699375 73 39013ft 542kts
25-Feb-18 15:30 43.618073 -93.500872 72 38992ft 543kts
25-Feb-18 15:31 43.663584 -93.304710 74 38984ft 543kts
25-Feb-18 15:32 43.709671 -93.106614 73 39000ft 543kts
25-Feb-18 15:33 43.757324 -92.907547 72 39001ft 551kts
25-Feb-18 15:34 43.805795 -92.706344 72 38972ft 558kts
25-Feb-18 15:35 43.854736 -92.504403 72 38964ft 557kts
25-Feb-18 15:36 43.903709 -92.303312 73 38974ft 555kts
25-Feb-18 15:37 43.953129 -92.101340 72 39000ft 557kts
25-Feb-18 15:38 44.003334 -91.900247 72 38996ft 556kts
25-Feb-18 15:39 44.054176 -91.698380 71 38995ft 556kts
25-Feb-18 15:40 44.104928 -91.499182 71 38992ft 557kts
25-Feb-18 15:41 44.154159 -91.308613 72 38990ft 556kts
25-Feb-18 15:42 44.203486 -91.116755 71 38972ft 558kts
25-Feb-18 15:43 44.254970 -90.920713 71 38957ft 565kts
25-Feb-18 15:44 44.307559 -90.721698 71 38956ft 563kts
25-Feb-18 15:45 44.361109 -90.520700 71 38935ft 564kts
25-Feb-18 15:46 44.414251 -90.322469 72 38868ft 564kts
25-Feb-18 15:47 44.467744 -90.123046 71 38892ft 564kts
25-Feb-18 15:48 44.525136 -89.924902 62 38922ft 565kts
25-Feb-18 15:49 44.588016 -89.728684 68 38883ft 565kts
25-Feb-18 15:50 44.648678 -89.529572 67 38894ft 565kts
25-Feb-18 15:51 44.708771 -89.333567 68 38896ft 564kts
25-Feb-18 15:52 44.768633 -89.137396 68 38870ft 565kts
25-Feb-18 15:53 44.829709 -88.941518 68 38841ft 566kts
25-Feb-18 15:54 44.892524 -88.743648 68 38872ft 576kts
25-Feb-18 15:55 44.956379 -88.542125 68 38871ft 574kts
25-Feb-18 15:56 45.018761 -88.345465 68 38866ft 568kts
25-Feb-18 15:57 45.080807 -88.147757 67 38858ft 562kts
25-Feb-18 15:58 45.140041 -87.964821 66 38837ft 554kts
25-Feb-18 15:59 45.200939 -87.777740 66 38819ft 557kts
25-Feb-18 16:00 45.263179 -87.587858 66 38819ft 557kts
25-Feb-18 16:01 45.326068 -87.397485 65 38803ft 556kts
25-Feb-18 16:02 45.386465 -87.213705 66 38765ft 556kts
25-Feb-18 16:03 45.449332 -87.026082 65 38752ft 559kts
25-Feb-18 16:04 45.514508 -86.833476 65 38758ft 569kts
25-Feb-18 16:05 45.580792 -86.638848 65 38755ft 573kts
25-Feb-18 16:06 45.646701 -86.446782 64 38770ft 573kts
25-Feb-18 16:07 45.710336 -86.261374 65 38774ft 571kts
25-Feb-18 16:08 45.775281 -86.074341 64 38774ft 573kts
25-Feb-18 16:09 45.840867 -85.887781 64 38773ft 572kts
25-Feb-18 16:10 45.908816 -85.695957 63 38801ft 572kts
25-Feb-18 16:11 45.977837 -85.502722 63 38779ft 573kts
25-Feb-18 16:12 46.045981 -85.312910 64 38735ft 572kts
25-Feb-18 16:13 46.113891 -85.124670 63 38725ft 573kts
25-Feb-18 16:14 46.182760 -84.937692 63 38744ft 580kts
25-Feb-18 16:15 46.252929 -84.747315 63 38714ft 579kts
25-Feb-18 16:16 46.322618 -84.559141 62 38712ft 581kts
25-Feb-18 16:17 46.392579 -84.370362 63 38714ft 580kts
25-Feb-18 16:18 46.451448 -84.177136 73 38761ft 576kts
25-Feb-18 16:19 46.499366 -83.975152 72 38754ft 576kts
25-Feb-18 16:20 46.548138 -83.772167 72 38777ft 577kts
25-Feb-18 16:21 46.598250 -83.564956 71 38787ft 577kts
25-Feb-18 16:22 46.650069 -83.353144 71 38786ft 577kts
25-Feb-18 16:23 46.700245 -83.147005 72 38769ft 577kts
25-Feb-18 16:24 46.753794 -82.931572 71 38730ft 581kts
25-Feb-18 16:25 46.809234 -82.710754 71 38769ft 591kts
25-Feb-18 16:26 46.866298 -82.485257 70 38766ft 597kts
25-Feb-18 16:27 46.921624 -82.266922 71 38764ft 585kts
25-Feb-18 16:28 46.977151 -82.049823 70 38762ft 573kts
25-Feb-18 16:29 47.031708 -81.839553 69 38702ft 559kts
25-Feb-18 16:30 47.085998 -81.632911 69 38702ft 558kts
25-Feb-18 16:31 47.140843 -81.429637 68 38702ft 556kts
25-Feb-18 16:32 47.194095 -81.228629 69 38696ft 557kts
25-Feb-18 16:33 47.249998 -81.021227 68 38697ft 560kts
25-Feb-18 16:34 47.306940 -80.812630 68 38701ft 569kts
25-Feb-18 16:35 47.364965 -80.601561 68 38690ft 568kts
25-Feb-18 16:36 47.423148 -80.391686 67 38619ft 569kts
25-Feb-18 16:37 47.478356 -80.191609 68 38619ft 569kts
25-Feb-18 16:38 47.535425 -79.988988 68 38617ft 569kts
25-Feb-18 16:39 47.594609 -79.782653 67 38617ft 569kts
25-Feb-18 16:40 47.655136 -79.573816 67 38619ft 569kts
25-Feb-18 16:41 47.715658 -79.366323 66 38598ft 569kts
25-Feb-18 16:42 47.773627 -79.166236 67 38539ft 569kts
25-Feb-18 16:43 47.833917 -78.960871 66 38545ft 577kts
25-Feb-18 16:44 47.894628 -78.755322 66 38550ft 575kts
25-Feb-18 16:45 47.956640 -78.547490 66 38546ft 577kts
25-Feb-18 16:46 48.017350 -78.344839 66 38562ft 576kts
25-Feb-18 16:47 48.077173 -78.144437 66 38571ft 577kts
25-Feb-18 16:48 48.138040 -77.944005 65 38570ft 576kts
25-Feb-18 16:49 48.194808 -77.735126 77 38581ft 573kts
25-Feb-18 16:50 48.228718 -77.512658 80 38574ft 573kts
25-Feb-18 16:51 48.260402 -77.290460 82 38566ft 572kts
25-Feb-18 16:52 48.292253 -77.067981 80 38574ft 573kts
25-Feb-18 16:53 48.324952 -76.842585 80 38573ft 577kts
25-Feb-18 16:54 48.359095 -76.610171 80 38572ft 578kts
25-Feb-18 16:55 48.393596 -76.378333 79 38575ft 579kts
25-Feb-18 16:56 48.427160 -76.150446 80 38569ft 578kts
25-Feb-18 16:57 48.460456 -75.930708 79 38556ft 578kts
25-Feb-18 16:58 48.494607 -75.707408 79 38546ft 578kts
25-Feb-18 16:59 48.529428 -75.481445 79 38547ft 579kts
25-Feb-18 17:00 48.564692 -75.251771 79 38544ft 578kts
25-Feb-18 17:01 48.601061 -75.018195 79 38546ft 578kts
25-Feb-18 17:02 48.639955 -74.786694 76 38545ft 582kts
25-Feb-18 17:03 48.680234 -74.559785 76 38547ft 581kts
25-Feb-18 17:04 48.720109 -74.336329 77 38546ft 581kts
25-Feb-18 17:05 48.758614 -74.116092 77 38546ft 581kts
25-Feb-18 17:06 48.798788 -73.891694 76 38543ft 581kts
25-Feb-18 17:07 48.839878 -73.663860 76 38547ft 581kts
25-Feb-18 17:08 48.880538 -73.439475 76 38768ft 582kts
25-Feb-18 17:09 48.920272 -73.214942 77 38756ft 579kts
25-Feb-18 17:10 48.959862 -72.995962 76 38764ft 576kts
25-Feb-18 17:11 48.999803 -72.778791 76 38763ft 566kts
25-Feb-18 17:12 49.039412 -72.564387 76 38766ft 556kts
25-Feb-18 17:13 49.079017 -72.350373 77 38768ft 547kts
25-Feb-18 17:14 49.115929 -72.152121 76 38764ft 538kts
25-Feb-18 17:15 49.154480 -71.948731 77 38763ft 537kts
25-Feb-18 17:16 49.192782 -71.741679 77 38763ft 536kts
25-Feb-18 17:17 49.225271 -71.566276 77 38800ft 537kts
25-Feb-18 17:18 49.265233 -71.351110 76 38855ft 536kts
25-Feb-18 17:19 49.300310 -71.151349 76 38877ft 542kts
25-Feb-18 17:20 49.339011 -70.943745 76 38883ft 542kts
25-Feb-18 17:21 49.378838 -70.732800 76 38886ft 549kts
25-Feb-18 17:22 49.424822 -70.488069 76 38885ft 548kts
25-Feb-18 17:23 49.462165 -70.287671 78 38879ft 546kts
25-Feb-18 17:24 49.498829 -70.090254 76 38882ft 547kts
25-Feb-18 17:25 49.530435 -69.923754 76 38964ft 547kts
25-Feb-18 17:26 49.568615 -69.729381 76 39088ft 548kts
25-Feb-18 17:27 49.613543 -69.501223 75 39112ft 548kts
25-Feb-18 17:28 49.650821 -69.310992 77 39109ft 547kts
25-Feb-18 17:29 49.681195 -69.152270 76 39110ft 547kts
25-Feb-18 17:30 49.718166 -68.962521 75 39115ft 550kts
25-Feb-18 17:31 49.761749 -68.738420 75 39112ft 553kts
25-Feb-18 17:32 49.793951 -68.573439 75 39114ft 552kts
25-Feb-18 17:33 49.832880 -68.373509 75 39113ft 553kts
25-Feb-18 17:34 49.869840 -68.179114 75 39114ft 552kts
25-Feb-18 17:35 49.910497 -67.969307 76 39110ft 552kts
25-Feb-18 17:36 49.950870 -67.760108 75 39114ft 552kts
25-Feb-18 17:37 49.991646 -67.549101 75 39143ft 552kts
25-Feb-18 17:38 50.032760 -67.335109 76 39222ft 552kts
25-Feb-18 17:39 50.073311 -67.119403 76 39242ft 553kts
25-Feb-18 17:40 50.115479 -66.895214 74 39238ft 563kts
25-Feb-18 17:41 50.158099 -66.672156 74 39240ft 561kts
25-Feb-18 17:42 50.201413 -66.443300 74 39239ft 562kts
25-Feb-18 17:43 50.242093 -66.215942 79 39237ft 560kts
25-Feb-18 17:44 50.269818 -65.989827 82 39235ft 559kts
25-Feb-18 17:45 50.295046 -65.767382 82 39242ft 560kts
25-Feb-18 17:46 50.320235 -65.543708 82 39241ft 559kts
25-Feb-18 17:47 50.345899 -65.314534 83 39234ft 558kts
25-Feb-18 17:48 50.370705 -65.086810 83 39244ft 559kts
25-Feb-18 17:49 50.397115 -64.853806 79 39348ft 563kts
25-Feb-18 17:50 50.426084 -64.621467 78 39385ft 566kts
25-Feb-18 17:51 50.455460 -64.393718 78 39388ft 567kts
25-Feb-18 17:52 50.483051 -64.171430 78 39385ft 566kts
25-Feb-18 17:53 50.510918 -63.949680 78 39387ft 566kts
25-Feb-18 17:54 50.538437 -63.730646 78 39386ft 566kts
25-Feb-18 17:55 50.565857 -63.509314 79 39386ft 566kts
25-Feb-18 17:56 50.593309 -63.284530 80 39385ft 565kts
25-Feb-18 17:57 50.620226 -63.057700 79 39385ft 567kts
25-Feb-18 17:58 50.646120 -62.826432 77 39396ft 572kts
25-Feb-18 17:59 50.673630 -62.591273 77 39435ft 570kts
25-Feb-18 18:00 50.701492 -62.354688 76 39434ft 569kts
25-Feb-18 18:01 50.728079 -62.118351 77 39428ft 572kts
25-Feb-18 18:02 50.755449 -61.881194 77 39433ft 571kts
25-Feb-18 18:03 50.782670 -61.641091 76 39437ft 571kts
25-Feb-18 18:04 50.809501 -61.402010 77 39433ft 571kts
25-Feb-18 18:05 50.834756 -61.167026 77 39431ft 571kts
25-Feb-18 18:06 50.858784 -60.930735 75 39429ft 573kts
25-Feb-18 18:07 50.883815 -60.692525 75 39436ft 572kts
25-Feb-18 18:08 50.909137 -60.453406 74 39430ft 566kts
25-Feb-18 18:09 50.933409 -60.217266 75 39430ft 563kts
25-Feb-18 18:10 50.957606 -59.981376 75 39435ft 559kts
25-Feb-18 18:11 50.982917 -59.748448 73 39434ft 553kts
25-Feb-18 18:12 51.008851 -59.512265 73 39446ft 550kts
25-Feb-18 18:13 51.033907 -59.276238 76 39448ft 548kts
25-Feb-18 18:14 51.058324 -59.042268 74 39445ft 547kts
25-Feb-18 18:15 51.081221 -58.805663 73 39449ft 546kts
25-Feb-18 18:16 51.104011 -58.574913 70 39451ft 541kts
25-Feb-18 18:17 51.128920 -58.345649 73 39451ft 542kts
25-Feb-18 18:18 51.150942 -58.111011 73 39451ft 543kts
25-Feb-18 18:19 51.172793 -57.877091 72 39447ft 535kts
25-Feb-18 18:20 51.194758 -57.641541 72 39446ft 539kts
25-Feb-18 18:21 51.216144 -57.406037 72 39450ft 538kts
25-Feb-18 18:22 51.236373 -57.171864 73 39451ft 541kts
25-Feb-18 18:23 51.256369 -56.937458 73 39452ft 533kts
25-Feb-18 18:24 51.275388 -56.705358 72 39451ft 531kts
25-Feb-18 18:25 51.294478 -56.473922 72 39448ft 530kts
25-Feb-18 18:26 51.312643 -56.242910 73 39452ft 532kts
25-Feb-18 18:27 51.330601 -56.011147 73 39454ft 531kts
25-Feb-18 18:28 51.348404 -55.777857 73 39450ft 529kts
25-Feb-18 18:29 51.365798 -55.544174 73 39452ft 531kts
25-Feb-18 18:30 51.382670 -55.310542 74 39444ft 533kts
25-Feb-18 18:31 51.398540 -55.076937 74 39448ft 525kts
25-Feb-18 18:32 51.414368 -54.849447 74 39455ft 514kts
25-Feb-18 18:33 51.429851 -54.620200 74 39455ft 516kts
25-Feb-18 18:34 51.444602 -54.392239 74 39454ft 517kts
25-Feb-18 18:35 51.458407 -54.165263 75 39447ft 518kts
25-Feb-18 18:36 51.473412 -53.935834 74 39450ft 516kts
25-Feb-18 18:37 51.497190 -53.711941 68 39449ft 508kts
25-Feb-18 18:38 51.529804 -53.492537 65 39455ft 504kts
25-Feb-18 18:39 51.562404 -53.275634 67 39450ft 507kts
25-Feb-18 18:40 51.594909 -53.055802 66 39445ft 505kts
25-Feb-18 18:41 51.627373 -52.838426 67 39443ft 495kts
25-Feb-18 18:42 51.658923 -52.623322 67 39449ft 495kts
25-Feb-18 18:43 51.689528 -52.407944 68 39446ft 493kts
25-Feb-18 18:44 51.719103 -52.191488 69 39445ft 496kts
25-Feb-18 18:45 51.748686 -51.974958 69 39443ft 496kts
25-Feb-18 18:46 51.777834 -51.758247 69 39442ft 496kts
25-Feb-18 18:47 51.806587 -51.540360 69 39442ft 495kts
25-Feb-18 18:48 51.834673 -51.323093 70 39435ft 496kts
25-Feb-18 18:49 51.861837 -51.104512 69 39436ft 497kts
25-Feb-18 18:50 51.888870 -50.888329 70 39407ft 485kts
25-Feb-18 18:51 51.915200 -50.674153 70 39404ft 487kts
25-Feb-18 18:52 51.941040 -50.459475 70 39403ft 486kts
25-Feb-18 18:53 51.966224 -50.243908 71 39400ft 488kts
25-Feb-18 18:54 51.993165 -50.029475 67 39401ft 483kts
25-Feb-18 18:55 52.021743 -49.816537 67 39401ft 484kts
25-Feb-18 18:56 52.055436 -49.605981 66 39406ft 481kts
25-Feb-18 18:57 52.089035 -49.395814 66 39401ft 481kts
25-Feb-18 18:58 52.122001 -49.184852 67 39402ft 484kts
25-Feb-18 18:59 52.155683 -48.974612 68 39405ft 479kts
25-Feb-18 19:00 52.188274 -48.764910 69 39406ft 480kts
25-Feb-18 19:01 52.219834 -48.553605 69 39407ft 480kts
25-Feb-18 19:02 52.250245 -48.345964 70 39404ft 479kts
25-Feb-18 19:03 52.279970 -48.133862 70 39405ft 481kts
25-Feb-18 19:04 52.309829 -47.921717 70 39405ft 480kts
25-Feb-18 19:05 52.339210 -47.709034 70 39403ft 480kts
25-Feb-18 19:06 52.368091 -47.495687 70 39404ft 480kts
25-Feb-18 19:07 52.395973 -47.282364 72 39404ft 482kts
25-Feb-18 19:08 52.423388 -47.067694 72 39405ft 481kts
25-Feb-18 19:09 52.451477 -46.854337 73 39404ft 481kts
25-Feb-18 19:10 52.479221 -46.640123 74 39404ft 481kts
25-Feb-18 19:11 52.505379 -46.424787 74 39404ft 481kts
25-Feb-18 19:12 52.530080 -46.209978 75 39404ft 482kts
25-Feb-18 19:13 52.554908 -45.994343 75 39342ft 482kts
25-Feb-18 19:14 52.579271 -45.778182 75 39164ft 480kts
25-Feb-18 19:15 52.603031 -45.562103 75 39083ft 482kts
25-Feb-18 19:16 52.626165 -45.345999 76 39001ft 481kts
25-Feb-18 19:17 52.648094 -45.127985 76 39000ft 482kts
25-Feb-18 19:18 52.671222 -44.910829 77 39001ft 484kts
25-Feb-18 19:19 52.693626 -44.694333 78 39154ft 483kts
25-Feb-18 19:20 52.715032 -44.476957 78 39158ft 480kts
25-Feb-18 19:21 52.735209 -44.259434 80 39155ft 481kts
25-Feb-18 19:22 52.755054 -44.041260 79 39157ft 481kts
25-Feb-18 19:23 52.774433 -43.823300 79 39157ft 481kts
25-Feb-18 19:24 52.793180 -43.604685 79 39157ft 481kts
25-Feb-18 19:25 52.811258 -43.385695 80 39157ft 481kts
25-Feb-18 19:26 52.827872 -43.167222 81 39156ft 482kts
25-Feb-18 19:27 52.846222 -42.946118 82 39156ft 483kts
25-Feb-18 19:28 52.862629 -42.727412 83 39156ft 484kts
25-Feb-18 19:29 52.878005 -42.507016 83 39157ft 481kts
25-Feb-18 19:30 52.892299 -42.287598 85 39158ft 481kts
25-Feb-18 19:31 52.905799 -42.067427 84 39156ft 482kts
25-Feb-18 19:32 52.919070 -41.846413 84 39156ft 482kts
25-Feb-18 19:33 52.929581 -41.662383 85 39157ft 482kts
25-Feb-18 19:34 52.943413 -41.405384 85 39156ft 482kts
25-Feb-18 19:35 52.953855 -41.184480 86 39156ft 482kts
25-Feb-18 19:36 52.962530 -41.000343 86 39157ft 482kts
25-Feb-18 19:37 52.973348 -40.778273 87 39156ft 483kts
25-Feb-18 19:38 52.982682 -40.557487 88 39158ft 482kts
25-Feb-18 19:39 52.990905 -40.336096 89 39157ft 481kts
25-Feb-18 19:40 52.997648 -40.114501 89 39156ft 481kts
25-Feb-18 19:41 53.016004 -39.896546 72 39156ft 486kts
25-Feb-18 19:42 53.054905 -39.682389 75 39157ft 483kts
25-Feb-18 19:43 53.091823 -39.467659 76 39157ft 483kts
25-Feb-18 19:44 53.127846 -39.253732 77 39156ft 482kts
25-Feb-18 19:45 53.163223 -39.038724 77 39157ft 482kts
25-Feb-18 19:46 53.198193 -38.823432 77 39156ft 482kts
25-Feb-18 19:47 53.232456 -38.607422 77 39157ft 482kts
25-Feb-18 19:48 53.266121 -38.390500 77 39157ft 482kts
25-Feb-18 19:49 53.297699 -38.177711 78 39156ft 482kts
25-Feb-18 19:50 53.329992 -37.959874 78 39156ft 482kts
25-Feb-18 19:51 53.361500 -37.742802 78 39156ft 482kts
25-Feb-18 19:52 53.392495 -37.524211 78 39155ft 482kts
25-Feb-18 19:53 53.422512 -37.306076 80 39156ft 482kts
25-Feb-18 19:54 53.451371 -37.087949 80 39156ft 481kts
25-Feb-18 19:55 53.480309 -36.869266 80 39157ft 480kts
25-Feb-18 19:56 53.508445 -36.649987 80 39158ft 480kts
25-Feb-18 19:57 53.535861 -36.430421 80 39157ft 480kts
25-Feb-18 19:58 53.561807 -36.210909 81 39147ft 480kts
25-Feb-18 19:59 53.587678 -35.990953 81 38957ft 480kts
25-Feb-18 20:00 53.612868 -35.771273 81 38941ft 480kts
25-Feb-18 20:01 53.637494 -35.549931 82 38941ft 480kts
25-Feb-18 20:02 53.661190 -35.329955 83 38940ft 480kts
25-Feb-18 20:03 53.683540 -35.108585 83 38940ft 480kts
25-Feb-18 20:04 53.706150 -34.887478 83 38942ft 479kts
25-Feb-18 20:05 53.728548 -34.665890 84 38942ft 478kts
25-Feb-18 20:06 53.749656 -34.445078 84 38941ft 478kts
25-Feb-18 20:07 53.769306 -34.224140 85 38940ft 477kts
25-Feb-18 20:08 53.788798 -34.002123 85 38940ft 478kts
25-Feb-18 20:09 53.807592 -33.780568 85 38940ft 477kts
25-Feb-18 20:10 53.825659 -33.558187 85 38941ft 477kts
25-Feb-18 20:11 53.842913 -33.335823 86 38942ft 477kts
25-Feb-18 20:12 53.858631 -33.113416 86 38942ft 477kts
25-Feb-18 20:13 53.874949 -32.890936 87 38942ft 476kts
25-Feb-18 20:14 53.890202 -32.668852 88 38941ft 476kts
25-Feb-18 20:15 53.904269 -32.446693 88 38941ft 475kts
25-Feb-18 20:16 53.916920 -32.224334 89 38940ft 474kts
25-Feb-18 20:17 53.929268 -32.001859 89 38940ft 475kts
25-Feb-18 20:18 53.940982 -31.778916 89 38941ft 475kts
25-Feb-18 20:19 53.952041 -31.557232 90 38940ft 471kts
25-Feb-18 20:20 53.962062 -31.335831 91 38942ft 472kts
25-Feb-18 20:21 53.970681 -31.114205 91 38987ft 471kts
25-Feb-18 20:22 53.979772 -30.892374 92 39073ft 471kts
25-Feb-18 20:23 53.987362 -30.671269 92 39076ft 470kts
25-Feb-18 20:24 53.993982 -30.449380 93 39078ft 470kts
25-Feb-18 20:25 53.998950 -30.228639 94 39078ft 469kts
25-Feb-18 20:26 54.001525 -30.007443 99 39076ft 465kts
25-Feb-18 20:27 54.018873 -29.787147 88 39071ft 476kts
25-Feb-18 20:28 54.036509 -29.564536 88 39077ft 475kts
25-Feb-18 20:29 54.052935 -29.343073 89 39079ft 474kts
25-Feb-18 20:30 54.067965 -29.120785 89 39078ft 474kts
25-Feb-18 20:31 54.083195 -28.898264 90 39077ft 472kts
25-Feb-18 20:32 54.098092 -28.677556 91 39076ft 470kts
25-Feb-18 20:33 54.112122 -28.457419 91 39069ft 470kts
25-Feb-18 20:34 54.123928 -28.241153 92 39076ft 467kts
25-Feb-18 20:35 54.135522 -28.020232 93 39074ft 469kts
25-Feb-18 20:36 54.146501 -27.798869 92 39072ft 468kts
25-Feb-18 20:37 54.156685 -27.577991 93 39075ft 469kts
25-Feb-18 20:38 54.166057 -27.357013 93 39075ft 468kts
25-Feb-18 20:39 54.173959 -27.136694 94 39074ft 467kts
25-Feb-18 20:40 54.182816 -26.916348 95 39076ft 464kts
25-Feb-18 20:41 54.190824 -26.697774 97 39071ft 463kts
25-Feb-18 20:42 54.196931 -26.478038 97 39066ft 463kts
25-Feb-18 20:43 54.201997 -26.260294 98 39071ft 460kts
25-Feb-18 20:44 54.206291 -26.041708 98 39074ft 461kts
25-Feb-18 20:45 54.210091 -25.823164 99 39074ft 462kts
25-Feb-18 20:46 54.213067 -25.604015 98 39079ft 460kts
25-Feb-18 20:47 54.215181 -25.385463 99 39077ft 460kts
25-Feb-18 20:48 54.215975 -25.167691 99 39077ft 461kts
25-Feb-18 20:49 54.217588 -24.951562 101 39080ft 450kts
25-Feb-18 20:50 54.217987 -24.737942 102 39073ft 451kts
25-Feb-18 20:51 54.217164 -24.524022 102 39072ft 452kts
25-Feb-18 20:52 54.215487 -24.311672 103 39077ft 449kts
25-Feb-18 20:53 54.212614 -24.098822 103 39066ft 449kts
25-Feb-18 20:54 54.209486 -23.886645 103 39071ft 448kts
25-Feb-18 20:55 54.205482 -23.673377 103 39075ft 448kts
25-Feb-18 20:56 54.200810 -23.460888 104 39072ft 448kts
25-Feb-18 20:57 54.194883 -23.250099 105 39073ft 445kts
25-Feb-18 20:58 54.188465 -23.038937 105 39075ft 445kts
25-Feb-18 20:59 54.180688 -22.827029 104 39074ft 449kts
25-Feb-18 21:00 54.172257 -22.614512 103 39076ft 450kts
25-Feb-18 21:01 54.163602 -22.401181 103 39073ft 449kts
25-Feb-18 21:02 54.153664 -22.190229 104 39069ft 449kts
25-Feb-18 21:03 54.143433 -21.978025 105 39068ft 449kts
25-Feb-18 21:04 54.132496 -21.766535 105 39071ft 449kts
25-Feb-18 21:05 54.120814 -21.555930 105 39075ft 448kts
25-Feb-18 21:06 54.108287 -21.345034 106 39074ft 448kts
25-Feb-18 21:07 54.094417 -21.135482 106 39075ft 447kts
25-Feb-18 21:08 54.079432 -20.924287 106 39074ft 451kts
25-Feb-18 21:09 54.063639 -20.712104 105 39069ft 452kts
25-Feb-18 21:10 54.047561 -20.499600 105 39075ft 453kts
25-Feb-18 21:11 54.030266 -20.288415 107 39073ft 450kts
25-Feb-18 21:12 54.011233 -20.078676 108 39080ft 449kts
25-Feb-18 21:13 54.005188 -19.866667 83 39105ft 481kts
25-Feb-18 21:14 54.019835 -19.646493 94 39109ft 466kts
25-Feb-18 21:15 54.027897 -19.426616 94 39097ft 466kts
25-Feb-18 21:16 54.034251 -19.207574 95 39333ft 464kts
25-Feb-18 21:17 54.039093 -18.986903 94 39341ft 475kts
25-Feb-18 21:18 54.043527 -18.761052 93 39341ft 475kts
25-Feb-18 21:19 54.048127 -18.537913 93 39348ft 470kts
25-Feb-18 21:20 54.051797 -18.318416 94 39347ft 473kts
25-Feb-18 21:21 54.054145 -18.096647 94 39346ft 472kts
25-Feb-18 21:22 54.056254 -17.873686 94 39345ft 471kts
25-Feb-18 21:23 54.057505 -17.651002 94 39343ft 471kts
25-Feb-18 21:24 54.057911 -17.428604 95 39343ft 471kts
25-Feb-18 21:25 54.056864 -17.206730 96 39344ft 470kts
25-Feb-18 21:26 54.055428 -16.984269 96 39346ft 470kts
25-Feb-18 21:27 54.051214 -16.762243 94 39344ft 472kts
25-Feb-18 21:28 54.047712 -16.539042 93 39349ft 471kts
25-Feb-18 21:29 54.043781 -16.317015 95 39344ft 472kts
25-Feb-18 21:30 54.038485 -16.094678 95 39345ft 471kts
25-Feb-18 21:31 54.032907 -15.872186 95 39343ft 471kts
25-Feb-18 21:32 54.026470 -15.650470 95 39348ft 471kts
25-Feb-18 21:33 54.019089 -15.428188 95 39349ft 471kts
25-Feb-18 21:34 54.010189 -15.207003 96 39346ft 471kts
25-Feb-18 21:35 53.999423 -14.987445 93 39341ft 453kts
25-Feb-18 21:36 54.000871 -14.771554 88 39349ft 466kts
25-Feb-18 21:37 54.001738 -14.549369 88 39348ft 471kts
25-Feb-18 21:38 54.001694 -14.327242 90 39346ft 472kts
25-Feb-18 21:39 54.000367 -14.104776 89 39345ft 471kts
25-Feb-18 21:40 53.998267 -13.882352 89 39346ft 471kts
25-Feb-18 21:41 53.999900 -13.660024 88 39346ft 471kts
25-Feb-18 21:42 54.001185 -13.438170 88 39346ft 471kts
25-Feb-18 21:43 54.001056 -13.215685 89 39346ft 471kts
25-Feb-18 21:44 53.999743 -12.994397 88 39346ft 468kts
25-Feb-18 21:45 53.997796 -12.773349 88 39346ft 468kts
25-Feb-18 21:46 53.995775 -12.552837 88 39347ft 467kts
25-Feb-18 21:47 53.992960 -12.332850 89 39346ft 468kts
25-Feb-18 21:48 53.988807 -12.117961 89 39347ft 468kts
25-Feb-18 21:49 53.984354 -11.897313 89 39346ft 468kts
25-Feb-18 21:50 53.980033 -11.713556 89 39347ft 468kts
25-Feb-18 21:51 53.972997 -11.456449 89 39346ft 468kts
25-Feb-18 21:52 53.967083 -11.277457 91 39346ft 469kts
25-Feb-18 21:53 53.959135 -11.056664 91 39347ft 468kts
25-Feb-18 21:54 53.950659 -10.838612 91 39347ft 464kts
25-Feb-18 21:55 53.941444 -10.621864 91 39346ft 464kts
25-Feb-18 21:56 53.929750 -10.368914 91 39347ft 463kts
25-Feb-18 21:57 53.920514 -10.195340 92 39346ft 464kts
25-Feb-18 21:58 53.909674 -9.992788 92 39348ft 464kts
25-Feb-18 21:59 53.897856 -9.788521 93 39343ft 464kts
25-Feb-18 22:00 53.884315 -9.583320 92 39346ft 464kts
25-Feb-18 22:01 53.870613 -9.371776 93 39346ft 464kts
25-Feb-18 22:02 53.855688 -9.162100 94 39344ft 464kts
25-Feb-18 22:03 53.840183 -8.952774 93 39344ft 462kts
25-Feb-18 22:04 53.823856 -8.745486 93 39346ft 460kts
25-Feb-18 22:05 53.807189 -8.535611 93 39345ft 460kts
25-Feb-18 22:06 53.790159 -8.330219 94 39344ft 460kts
25-Feb-18 22:07 53.771532 -8.121954 94 39347ft 460kts
25-Feb-18 22:08 53.752709 -7.913416 94 39346ft 461kts
25-Feb-18 22:09 53.732951 -7.702972 94 39418ft 461kts
25-Feb-18 22:10 53.712395 -7.492480 94 39428ft 461kts
25-Feb-18 22:11 53.690919 -7.283578 96 39428ft 462kts
25-Feb-18 22:12 53.668281 -7.074700 95 39426ft 462kts
25-Feb-18 22:13 53.644411 -6.865577 94 39426ft 462kts
25-Feb-18 22:14 53.620523 -6.654277 94 39436ft 462kts
25-Feb-18 22:15 53.595935 -6.442939 94 39454ft 462kts
25-Feb-18 22:16 53.570177 -6.232775 96 39453ft 463kts
25-Feb-18 22:17 53.544245 -6.023715 95 39452ft 462kts
25-Feb-18 22:18 53.518185 -5.817965 96 39455ft 463kts
25-Feb-18 22:19 53.491412 -5.608681 95 39455ft 462kts
25-Feb-18 22:20 53.490138 -5.404231 69 39334ft 439kts
25-Feb-18 22:21 53.518319 -5.210868 69 39213ft 436kts
25-Feb-18 22:22 53.520079 -5.013995 89 39028ft 456kts
25-Feb-18 22:23 53.517616 -4.807939 87 38999ft 450kts
25-Feb-18 22:24 53.504969 -4.599182 85 39003ft 448kts
25-Feb-18 22:25 53.498015 -4.390813 85 39003ft 449kts
25-Feb-18 22:26 53.490336 -4.186215 85 39006ft 449kts
25-Feb-18 22:27 53.484617 -3.979515 82 39005ft 445kts
25-Feb-18 22:28 53.444488 -3.784834 100 39058ft 467kts
25-Feb-18 22:29 53.408096 -3.581399 97 39514ft 461kts
25-Feb-18 22:30 53.348340 -3.394069 102 39548ft 467kts
25-Feb-18 22:31 53.295004 -3.220591 109 39548ft 477kts
25-Feb-18 22:32 53.242251 -3.039871 107 39545ft 472kts
25-Feb-18 22:33 53.189395 -2.859418 107 39542ft 468kts
25-Feb-18 22:34 53.137542 -2.683498 107 39435ft 472kts
25-Feb-18 22:35 53.085879 -2.509284 107 38761ft 469kts
25-Feb-18 22:36 53.037970 -2.344373 107 38177ft 475kts
25-Feb-18 22:37 52.944976 -2.218505 148 36441ft 525kts
25-Feb-18 22:38 52.840076 -2.112970 142 34059ft 522kts
25-Feb-18 22:39 52.739943 -2.008029 142 31906ft 517kts
25-Feb-18 22:40 52.636119 -1.899851 142 29359ft 516kts
25-Feb-18 22:41 52.530681 -1.791151 142 27239ft 501kts
25-Feb-18 22:42 52.428582 -1.686897 142 25058ft 478kts
25-Feb-18 22:43 52.327605 -1.584184 142 22893ft 462kts
25-Feb-18 22:44 52.232316 -1.486031 140 20833ft 443kts
25-Feb-18 22:45 52.149341 -1.380517 133 19279ft 419kts
25-Feb-18 22:46 52.074239 -1.276288 133 17789ft 408kts
25-Feb-18 22:47 51.995170 -1.164602 133 16225ft 394kts
25-Feb-18 22:48 51.915488 -1.053648 136 13944ft 377kts
25-Feb-18 22:49 51.835650 -0.984886 183 11920ft 385kts
25-Feb-18 22:50 51.748514 -1.039690 200 10969ft 347kts
25-Feb-18 22:51 51.676152 -1.021650 125 10391ft 273kts
25-Feb-18 22:52 51.628094 -0.944932 148 9043ft 278kts
25-Feb-18 22:53 51.565637 -0.943663 238 8736ft 247kts
25-Feb-18 22:54 51.560002 -1.040947 274 7673ft 238kts
25-Feb-18 22:55 51.560309 -1.140530 274 7066ft 205kts
25-Feb-18 22:56 51.539742 -1.200101 170 6324ft 195kts
25-Feb-18 22:57 51.514110 -1.140431 102 5088ft 201kts
25-Feb-18 22:58 51.500767 -1.053660 99 3380ft 211kts
25-Feb-18 22:59 51.490206 -0.979103 98 2963ft 165kts
25-Feb-18 23:00 51.481429 -0.918208 100 2992ft 155kts
25-Feb-18 23:01 51.473368 -0.865360 100 2960ft 150kts
25-Feb-18 23:02 51.466110 -0.812866 93 2958ft 149kts
25-Feb-18 23:03 51.464236 -0.763454 88 2957ft 147kts
25-Feb-18 23:04 51.463975 -0.712170 87 2881ft 150kts
25-Feb-18 23:05 51.464119 -0.662817 87 2298ft 127kts
25-Feb-18 23:06 51.464321 -0.619088 87 1771ft 127kts
25-Feb-18 23:07 51.464490 -0.578464 87 1278ft 126kts
25-Feb-18 23:08 51.464624 -0.542548 87 843ft 126kts
25-Feb-18 23:09 51.464671 -0.508634 86 430ft 125kts
25-Feb-18 23:10 51.464780 -0.475427 86 90ft 116kts
25-Feb-18 23:11 51.465817 -0.456930 40 88ft 13kts
25-Feb-18 23:12 51.467514 -0.458455 266 90ft 14kts
25-Feb-18 23:13 51.467472 -0.462546 266 86ft 10kts
25-Feb-18 23:14 51.468803 -0.465410 326 82ft 10kts

Navigation Log

Ident Type
Flight plan parsing failed, navigation log unavailable